createdAt,value
2019-03-18T00:00:35.987Z,96.90
2019-03-18T00:04:41.018Z,97.40
2019-03-18T00:08:45.991Z,97.10
2019-03-18T00:12:52.125Z,97.30
2019-03-18T00:16:57.388Z,97.40
2019-03-18T00:21:02.377Z,97.80
2019-03-18T00:25:10.214Z,97.50
2019-03-18T00:29:15.169Z,97.10
2019-03-18T00:33:20.162Z,96.80
2019-03-18T00:37:25.159Z,96.40
2019-03-18T00:41:30.143Z,95.90
2019-03-18T00:45:35.149Z,95.50
2019-03-18T00:49:40.126Z,95.60
2019-03-18T00:53:45.098Z,95.40
2019-03-18T00:57:50.085Z,95.50
2019-03-18T01:01:55.062Z,95.00
2019-03-18T01:06:00.078Z,94.70
2019-03-18T01:10:08.251Z,94.50
2019-03-18T01:14:13.214Z,94.70
2019-03-18T01:18:18.202Z,94.80
2019-03-18T01:22:23.196Z,94.80
2019-03-18T01:26:28.182Z,94.90
2019-03-18T01:30:33.181Z,95.10
2019-03-18T01:34:38.165Z,95.00
2019-03-18T01:38:43.154Z,95.00
2019-03-18T01:42:48.142Z,95.10
2019-03-18T01:46:53.166Z,95.20
2019-03-18T01:50:58.155Z,95.20
2019-03-18T01:55:03.599Z,95.30
2019-03-18T01:59:08.594Z,95.10
2019-03-18T02:03:13.603Z,95.00
2019-03-18T02:07:18.683Z,95.00
2019-03-18T02:11:23.690Z,95.00
2019-03-18T02:15:28.686Z,95.00
2019-03-18T02:19:33.654Z,94.70
2019-03-18T02:23:38.654Z,94.30
2019-03-18T02:27:43.693Z,94.30
2019-03-18T02:31:48.675Z,94.10
2019-03-18T02:35:53.671Z,94.10
2019-03-18T02:39:58.732Z,93.90
2019-03-18T02:44:03.715Z,94.20
2019-03-18T02:48:08.700Z,94.20
2019-03-18T02:52:13.751Z,94.20
2019-03-18T02:56:18.757Z,94.60
2019-03-18T03:00:23.729Z,94.90
2019-03-18T03:04:28.690Z,95.30
2019-03-18T03:08:33.729Z,95.50
2019-03-18T03:12:38.991Z,95.50
2019-03-18T03:16:43.981Z,95.60
2019-03-18T03:20:49.106Z,95.60
2019-03-18T03:24:54.093Z,95.60
2019-03-18T03:28:59.070Z,95.30
2019-03-18T03:33:04.115Z,94.70
2019-03-18T03:37:09.087Z,94.20
2019-03-18T03:41:17.657Z,94.00
2019-03-18T03:45:20.706Z,93.80
2019-03-18T03:49:25.787Z,94.00
2019-03-18T03:53:31.196Z,94.30
2019-03-18T03:57:36.402Z,94.30
2019-03-18T04:01:41.600Z,94.70
2019-03-18T04:05:46.606Z,95.00
2019-03-18T04:09:51.590Z,95.40
2019-03-18T04:13:56.588Z,95.60
2019-03-18T04:18:01.580Z,96.00
2019-03-18T04:22:06.723Z,96.10
2019-03-18T04:26:12.747Z,96.00
2019-03-18T04:30:17.742Z,95.80
2019-03-18T04:34:22.775Z,95.30
2019-03-18T04:38:27.777Z,94.80
2019-03-18T04:42:32.758Z,94.60
2019-03-18T04:46:37.742Z,94.60
2019-03-18T04:50:42.705Z,94.40
2019-03-18T04:54:47.697Z,93.90
2019-03-18T04:58:53.646Z,94.00
2019-03-18T05:02:58.677Z,94.20
2019-03-18T05:07:03.669Z,94.50
2019-03-18T05:11:08.637Z,94.80
2019-03-18T05:15:13.810Z,94.80
2019-03-18T05:19:18.810Z,94.70
2019-03-18T05:23:23.798Z,94.70
2019-03-18T05:27:28.781Z,94.80
2019-03-18T05:31:33.751Z,94.80
2019-03-18T05:35:38.743Z,94.70
2019-03-18T05:39:43.775Z,94.60
2019-03-18T05:43:48.818Z,94.50
2019-03-18T05:47:56.809Z,94.50
2019-03-18T05:52:01.802Z,94.60
2019-03-18T05:56:06.764Z,94.60
2019-03-18T06:00:13.221Z,94.20
2019-03-18T06:08:35.689Z,93.20
2019-03-18T06:12:40.755Z,92.20
2019-03-18T06:16:45.725Z,92.60
2019-03-18T06:20:50.719Z,92.40
2019-03-18T06:24:55.705Z,92.20
2019-03-18T06:29:00.730Z,92.00
2019-03-18T06:33:05.670Z,91.50
2019-03-18T06:37:10.645Z,91.40
2019-03-18T06:41:16.754Z,89.70
2019-03-18T06:45:22.034Z,76.70
2019-03-18T06:49:27.293Z,61.50
2019-03-18T06:53:32.562Z,50.40
2019-03-18T06:57:37.924Z,45.70
2019-03-18T07:01:44.208Z,40.80
2019-03-18T07:05:49.475Z,39.10
2019-03-18T07:09:54.741Z,36.30
2019-03-18T07:14:00.010Z,35.10
2019-03-18T07:18:17.708Z,36.60
2019-03-18T07:22:12.235Z,35.40
2019-03-18T07:26:17.510Z,35.10
2019-03-18T07:30:22.786Z,35.00
2019-03-18T07:34:28.061Z,34.50
2019-03-18T07:38:33.331Z,34.70
2019-03-18T07:42:38.574Z,38.80
2019-03-18T07:46:43.841Z,38.10
2019-03-18T07:50:49.109Z,37.50
2019-03-18T07:54:54.369Z,40.00
2019-03-18T07:58:59.667Z,38.00
2019-03-18T08:03:04.927Z,36.20
2019-03-18T08:07:10.186Z,33.80
2019-03-18T08:11:15.454Z,31.80
2019-03-18T08:15:20.718Z,32.30
2019-03-18T08:19:25.981Z,33.50
2019-03-18T08:23:31.259Z,32.90
2019-03-18T08:27:36.549Z,31.60
2019-03-18T08:31:41.821Z,32.30
2019-03-18T08:35:47.086Z,35.70
2019-03-18T08:39:52.377Z,38.50
2019-03-18T08:43:57.795Z,42.90
2019-03-18T08:48:03.070Z,45.30
2019-03-18T08:52:08.441Z,47.10
2019-03-18T08:56:13.697Z,50.00
2019-03-18T09:00:19.051Z,50.70
2019-03-18T09:04:24.460Z,53.50
2019-03-18T09:08:29.828Z,55.60
2019-03-18T09:12:35.090Z,55.00
2019-03-18T09:16:40.418Z,54.60
2019-03-18T09:20:45.686Z,54.20
2019-03-18T09:24:50.945Z,55.30
2019-03-18T09:28:56.222Z,56.50
2019-03-18T09:33:01.474Z,58.50
2019-03-18T09:37:06.719Z,59.30
2019-03-18T09:41:11.984Z,57.90
2019-03-18T09:45:18.206Z,56.60
2019-03-18T09:49:23.546Z,54.40
2019-03-18T09:53:28.788Z,51.40
2019-03-18T09:57:34.062Z,49.50
2019-03-18T10:01:39.340Z,50.30
2019-03-18T10:05:44.708Z,47.60
2019-03-18T10:09:49.976Z,46.70
2019-03-18T10:13:55.220Z,47.90
2019-03-18T10:18:00.487Z,47.70
2019-03-18T10:22:05.765Z,49.60
2019-03-18T10:26:11.048Z,52.00
2019-03-18T10:30:16.581Z,51.70
2019-03-18T10:34:21.879Z,49.20
2019-03-18T10:38:27.091Z,46.50
2019-03-18T10:42:32.358Z,46.20
2019-03-18T10:46:37.626Z,46.70
2019-03-18T10:50:42.910Z,45.90
2019-03-18T10:54:48.178Z,44.80
2019-03-18T10:58:53.439Z,45.30
2019-03-18T11:02:58.709Z,46.60
2019-03-18T11:07:03.994Z,47.20
2019-03-18T11:11:09.262Z,46.90
2019-03-18T11:15:21.698Z,44.00
2019-03-18T11:19:26.942Z,42.00
2019-03-18T11:23:32.223Z,40.00
2019-03-18T11:27:37.693Z,39.20
2019-03-18T11:31:42.975Z,44.30
2019-03-18T11:35:48.322Z,49.10
2019-03-18T11:39:53.582Z,52.00
2019-03-18T11:43:58.933Z,52.20
2019-03-18T11:48:04.263Z,52.60
2019-03-18T11:52:09.522Z,52.80
2019-03-18T11:56:15.089Z,53.60
2019-03-18T12:00:21.605Z,55.10
2019-03-18T12:04:26.849Z,56.70
2019-03-18T12:08:32.102Z,57.10
2019-03-18T12:12:37.374Z,51.30
2019-03-18T12:16:42.655Z,44.90
2019-03-18T12:20:47.925Z,45.40
2019-03-18T12:24:53.191Z,43.50
2019-03-18T12:28:58.446Z,46.80
2019-03-18T12:33:03.989Z,54.20
2019-03-18T12:37:09.254Z,57.60
2019-03-18T12:41:14.549Z,58.00
2019-03-18T12:45:20.990Z,57.50
2019-03-18T12:49:26.225Z,52.60
2019-03-18T12:53:31.582Z,52.20
2019-03-18T12:57:36.872Z,51.40
2019-03-18T13:01:42.147Z,49.10
2019-03-18T13:05:47.414Z,48.00
2019-03-18T13:09:52.668Z,45.80
2019-03-18T13:13:57.945Z,46.00
2019-03-18T13:18:03.238Z,43.80
2019-03-18T13:22:08.503Z,47.20
2019-03-18T13:26:13.781Z,45.10
2019-03-18T13:30:20.284Z,48.30
2019-03-18T13:34:25.569Z,49.60
2019-03-18T13:38:30.848Z,52.50
2019-03-18T13:42:36.102Z,55.40
2019-03-18T13:46:41.465Z,72.10
2019-03-18T13:50:46.723Z,86.50
2019-03-18T13:54:51.697Z,92.10
2019-03-18T13:58:57.654Z,93.90
2019-03-18T14:03:02.638Z,95.90
2019-03-18T14:07:07.617Z,96.40
2019-03-18T14:11:12.607Z,97.20
2019-03-18T14:15:18.908Z,97.30
2019-03-18T14:19:23.974Z,96.90
2019-03-18T14:23:28.953Z,96.20
2019-03-18T14:27:34.226Z,96.40
2019-03-18T14:31:39.214Z,95.50
2019-03-18T14:35:44.186Z,96.00
2019-03-18T14:39:49.194Z,95.10
2019-03-18T14:43:54.187Z,95.10
2019-03-18T14:47:59.160Z,94.20
2019-03-18T14:52:04.152Z,93.30
2019-03-18T14:56:09.121Z,92.70
2019-03-18T15:00:24.431Z,92.50
2019-03-18T15:04:29.421Z,92.10
2019-03-18T15:08:34.438Z,91.30
2019-03-18T15:12:39.500Z,89.30
2019-03-18T15:16:45.522Z,88.90
2019-03-18T15:20:50.519Z,85.60
2019-03-18T15:24:55.494Z,83.00
2019-03-18T15:29:01.549Z,81.90
2019-03-18T15:33:06.526Z,81.00
2019-03-18T15:37:11.581Z,81.50
2019-03-18T15:41:16.570Z,80.20
2019-03-18T15:45:22.649Z,79.60
2019-03-18T15:49:27.913Z,79.80
2019-03-18T15:53:32.973Z,79.60
2019-03-18T15:57:37.982Z,77.30
2019-03-18T16:01:44.817Z,74.00
2019-03-18T16:05:49.600Z,75.30
2019-03-18T16:09:54.670Z,72.30
2019-03-18T16:13:59.677Z,74.70
2019-03-18T16:18:04.685Z,73.60
2019-03-18T16:22:09.767Z,73.90
2019-03-18T16:26:15.009Z,83.90
2019-03-18T16:30:21.906Z,90.50
2019-03-18T16:34:26.957Z,91.30
2019-03-18T16:38:31.942Z,91.10
2019-03-18T16:42:36.979Z,89.70
2019-03-18T16:46:42.982Z,90.40
2019-03-18T16:50:48.225Z,91.70
2019-03-18T16:54:53.926Z,93.00
2019-03-18T16:58:59.512Z,94.60
2019-03-18T17:03:05.218Z,95.30
2019-03-18T17:07:10.424Z,95.60
2019-03-18T17:11:15.836Z,96.00
2019-03-18T17:15:22.157Z,96.10
2019-03-18T17:19:28.839Z,96.50
2019-03-18T17:23:34.673Z,96.70
2019-03-18T17:27:40.616Z,97.10
2019-03-18T17:31:45.999Z,97.40
2019-03-18T17:35:51.830Z,97.50
2019-03-18T17:39:57.424Z,97.70
2019-03-18T17:44:03.478Z,97.70
2019-03-18T17:48:09.503Z,98.00
2019-03-18T17:52:14.959Z,98.30
2019-03-18T17:56:29.805Z,98.40
2019-03-18T18:00:32.826Z,98.10
2019-03-18T18:04:38.707Z,98.00
2019-03-18T18:08:43.997Z,97.40
2019-03-18T18:12:48.998Z,96.90
2019-03-18T18:16:54.165Z,96.30
2019-03-18T18:20:59.093Z,95.80
2019-03-18T18:25:08.241Z,95.50
2019-03-18T18:29:13.241Z,95.60
2019-03-18T18:33:18.245Z,95.80
2019-03-18T18:37:23.249Z,95.90
2019-03-18T18:41:28.270Z,95.90
2019-03-18T18:45:33.271Z,96.00
2019-03-18T18:49:38.271Z,96.20
2019-03-18T18:53:43.262Z,96.20
2019-03-18T18:57:49.326Z,96.20
2019-03-18T19:01:54.338Z,96.40
2019-03-18T19:05:59.305Z,96.40
2019-03-18T19:10:06.638Z,96.40
2019-03-18T19:14:11.706Z,96.10
2019-03-18T19:18:16.702Z,95.60
2019-03-18T19:22:21.714Z,95.10
2019-03-18T19:26:26.702Z,94.80
2019-03-18T19:30:31.750Z,94.60
2019-03-18T19:34:36.849Z,94.20
2019-03-18T19:38:41.951Z,94.30
2019-03-18T19:42:47.075Z,94.10
2019-03-18T19:46:52.214Z,94.10
2019-03-18T19:50:57.360Z,93.90
2019-03-18T19:55:02.370Z,93.90
2019-03-18T19:59:07.429Z,94.10
2019-03-18T20:03:12.516Z,94.30
2019-03-18T20:07:17.650Z,94.20
2019-03-18T20:11:22.647Z,94.10
2019-03-18T20:15:27.669Z,93.90
2019-03-18T20:19:32.658Z,93.90
2019-03-18T20:23:37.966Z,93.90
2019-03-18T20:27:43.409Z,93.90
2019-03-18T20:31:48.610Z,93.80
2019-03-18T20:35:53.582Z,93.80
2019-03-18T20:39:59.538Z,93.80
2019-03-18T20:44:04.711Z,93.80
2019-03-18T20:48:09.704Z,93.70
2019-03-18T20:52:17.053Z,93.60
2019-03-18T20:56:21.477Z,93.60
2019-03-18T21:00:26.578Z,93.40
2019-03-18T21:04:31.741Z,93.20
2019-03-18T21:08:36.744Z,93.20
2019-03-18T21:12:41.718Z,93.20
2019-03-18T21:16:46.705Z,93.20
2019-03-18T21:20:51.718Z,93.30
2019-03-18T21:24:56.762Z,93.40
2019-03-18T21:29:01.750Z,93.80
2019-03-18T21:33:06.760Z,94.20
2019-03-18T21:37:12.889Z,94.50
2019-03-18T21:41:17.886Z,94.70
2019-03-18T21:45:24.082Z,95.00
2019-03-18T21:49:29.161Z,95.20
2019-03-18T21:53:34.274Z,95.30
2019-03-18T21:57:39.333Z,95.30
2019-03-18T22:01:44.493Z,95.00
2019-03-18T22:05:49.489Z,94.90
2019-03-18T22:09:54.490Z,94.70
2019-03-18T22:13:59.573Z,94.50
2019-03-18T22:18:04.694Z,94.40
2019-03-18T22:22:09.737Z,94.40
2019-03-18T22:26:14.749Z,94.60
2019-03-18T22:30:19.978Z,94.20
2019-03-18T22:34:25.002Z,94.10
2019-03-18T22:38:29.993Z,93.90
2019-03-18T22:42:35.098Z,93.80
2019-03-18T22:46:40.118Z,94.00
2019-03-18T22:50:45.119Z,94.10
2019-03-18T22:54:55.893Z,94.40
2019-03-18T22:58:56.721Z,94.40
2019-03-18T23:03:01.724Z,94.50
2019-03-18T23:07:06.714Z,94.50
2019-03-18T23:11:12.865Z,94.50
2019-03-18T23:15:17.851Z,94.50
2019-03-18T23:19:22.823Z,94.10
2019-03-18T23:23:27.840Z,94.00
2019-03-18T23:27:32.811Z,93.30
2019-03-18T23:31:37.814Z,93.40
2019-03-18T23:35:42.837Z,93.40
2019-03-18T23:39:47.809Z,93.40
2019-03-18T23:43:52.874Z,93.60
2019-03-18T23:47:57.942Z,93.60
2019-03-18T23:52:02.940Z,93.40
2019-03-18T23:56:08.058Z,93.60
